createdAt,value
2019-02-16T15:26:28.250Z,21.30
2019-02-16T15:27:23.582Z,21.46
2019-02-16T15:31:56.788Z,20.53
2019-02-16T15:32:34.362Z,19.76
2019-02-16T15:33:34.615Z,19.10
2019-02-16T15:34:34.833Z,18.56
2019-02-16T15:35:35.067Z,18.35
2019-02-16T15:36:35.156Z,17.95
2019-02-16T15:37:35.378Z,17.77
2019-02-16T15:38:35.621Z,17.62
2019-02-16T15:39:35.827Z,17.06
2019-02-16T15:40:36.028Z,16.88
2019-02-16T15:41:36.219Z,16.63
2019-02-16T15:42:36.424Z,16.29
2019-02-16T15:43:36.673Z,16.32
2019-02-16T15:44:36.880Z,16.33
2019-02-16T15:45:37.109Z,16.30
2019-02-16T15:46:37.331Z,16.29
2019-02-16T15:47:37.545Z,15.95
2019-02-16T15:48:38.704Z,15.77
2019-02-16T15:49:38.075Z,15.71
2019-02-16T15:50:38.181Z,15.43
2019-02-16T15:51:38.360Z,15.44
2019-02-16T15:52:38.530Z,15.46
2019-02-16T15:53:38.735Z,15.46
2019-02-16T15:54:39.008Z,15.44
2019-02-16T15:55:39.057Z,15.46
2019-02-16T15:56:39.236Z,15.35
2019-02-16T15:57:39.417Z,15.56
2019-02-16T15:58:39.571Z,15.58
2019-02-16T15:59:39.730Z,15.44
2019-02-16T16:00:39.966Z,15.31
2019-02-16T16:01:40.234Z,15.01
2019-02-16T16:02:40.420Z,14.83
2019-02-16T16:03:40.629Z,14.66
2019-02-16T16:04:40.790Z,14.57
2019-02-16T16:05:40.976Z,14.31
2019-02-16T16:06:42.332Z,14.06
2019-02-16T16:07:42.463Z,13.59
2019-02-16T16:08:42.772Z,12.99
2019-02-16T16:09:42.916Z,12.87
2019-02-16T16:10:43.018Z,12.67
2019-02-16T16:11:43.282Z,12.67
2019-02-16T16:12:43.389Z,12.61
2019-02-16T16:13:44.351Z,12.36
2019-02-16T16:14:43.807Z,12.13
2019-02-16T16:15:44.833Z,12.07
2019-02-16T16:16:45.129Z,11.93
2019-02-16T16:17:44.295Z,11.79
2019-02-16T16:18:44.518Z,11.67
2019-02-16T16:19:44.773Z,11.64
2019-02-16T16:20:44.844Z,11.64
2019-02-16T16:21:45.042Z,11.63
2019-02-16T16:22:45.241Z,11.49
2019-02-16T16:23:45.365Z,11.36
2019-02-16T16:24:45.533Z,11.39
2019-02-16T16:25:46.377Z,11.19
2019-02-16T16:26:46.882Z,11.12
2019-02-16T16:27:46.869Z,11.12
2019-02-16T16:28:46.194Z,11.02
2019-02-16T16:29:46.430Z,11.12
2019-02-16T16:30:46.581Z,10.98
2019-02-16T16:31:46.751Z,10.94
2019-02-16T16:32:46.891Z,10.95
2019-02-16T16:33:47.078Z,10.81
2019-02-16T16:34:47.322Z,10.83
2019-02-16T16:35:47.441Z,10.91
2019-02-16T16:36:47.577Z,10.78
2019-02-16T16:37:47.750Z,10.63
2019-02-16T16:38:47.929Z,10.54
2019-02-16T16:39:48.068Z,10.28
2019-02-16T16:40:48.869Z,10.24
2019-02-16T16:41:48.381Z,10.14
2019-02-16T16:42:49.554Z,10.10
2019-02-16T16:43:48.714Z,9.98
2019-02-16T16:44:48.852Z,9.91
2019-02-16T16:45:48.995Z,9.74
2019-02-16T16:46:49.209Z,9.58
2019-02-16T16:47:49.360Z,9.40
2019-02-16T16:48:49.501Z,9.24
2019-02-16T16:49:49.604Z,9.19
2019-02-16T16:50:49.828Z,9.16
2019-02-16T16:51:50.098Z,9.06
2019-02-16T16:52:50.226Z,8.83
2019-02-16T16:53:50.386Z,8.57
2019-02-16T16:54:50.489Z,8.50
2019-02-16T16:55:50.698Z,8.32
2019-02-16T16:56:50.931Z,8.02
2019-02-16T16:57:51.167Z,8.06
2019-02-16T16:58:51.438Z,8.02
2019-02-16T16:59:51.570Z,7.99
2019-02-16T17:00:51.699Z,7.88
2019-02-16T17:01:51.926Z,7.85
2019-02-16T17:02:52.165Z,7.79
2019-02-16T17:16:55.933Z,6.68
2019-02-16T17:18:09.281Z,6.57
2019-02-16T17:18:54.490Z,6.48
2019-02-16T17:19:54.725Z,6.45
2019-02-16T17:20:54.849Z,6.28
2019-02-16T17:21:56.825Z,6.05
2019-02-16T17:22:56.231Z,5.96
2019-02-16T17:23:56.391Z,5.81
2019-02-16T17:24:56.619Z,5.95
2019-02-16T17:25:56.797Z,5.99
2019-02-16T17:26:57.015Z,5.85
2019-02-16T17:27:57.190Z,5.69
2019-02-16T17:28:57.455Z,5.63
2019-02-16T17:29:57.668Z,5.70
2019-02-16T17:30:57.891Z,5.55
2019-02-16T17:31:58.028Z,5.45
2019-02-16T17:32:58.261Z,5.44
2019-02-16T17:33:58.431Z,5.33
2019-02-16T17:34:58.623Z,5.29
2019-02-16T17:35:58.852Z,5.05
2019-02-16T17:36:59.008Z,5.01
2019-02-16T17:37:59.195Z,4.90
2019-02-16T17:38:59.443Z,4.96
2019-02-16T17:39:59.650Z,4.91
2019-02-16T17:40:59.892Z,4.80
2019-02-16T17:42:00.065Z,4.71
2019-02-16T17:43:00.280Z,4.67
2019-02-16T17:44:00.454Z,4.57
2019-02-16T17:45:00.665Z,4.46
2019-02-16T17:46:00.885Z,4.46
2019-02-16T17:47:01.024Z,4.29
2019-02-16T17:48:01.124Z,4.20
2019-02-16T17:49:01.357Z,4.26
2019-02-16T17:50:01.588Z,4.13
2019-02-16T17:51:01.737Z,4.14
2019-02-16T17:52:01.823Z,4.07
2019-02-16T17:53:02.036Z,3.99
2019-02-16T17:54:08.103Z,3.86
2019-02-16T17:55:04.396Z,3.80
2019-02-16T17:56:02.582Z,3.95
2019-02-16T17:57:02.729Z,3.78
2019-02-16T17:58:02.858Z,3.72
2019-02-16T17:59:02.981Z,3.78
2019-02-16T18:30:38.059Z,2.44
2019-02-16T18:31:41.910Z,2.45
2019-02-16T18:32:37.467Z,2.44
2019-02-16T18:33:37.758Z,2.56
2019-02-16T18:34:37.866Z,2.48
2019-02-16T18:35:38.338Z,2.29
2019-02-16T18:36:38.626Z,2.26
2019-02-16T18:37:39.064Z,2.19
2019-02-16T18:38:39.420Z,2.18
2019-02-16T18:39:38.664Z,2.05
2019-02-16T18:40:38.827Z,2.05
2019-02-16T18:41:38.966Z,2.09
2019-02-16T18:42:39.091Z,2.05
2019-02-16T18:43:39.323Z,2.07
2019-02-16T18:44:39.429Z,2.00
2019-02-16T18:45:39.660Z,1.93
2019-02-16T18:46:39.934Z,1.93
2019-02-16T18:47:40.108Z,1.89
2019-02-16T18:48:40.282Z,1.75
2019-02-16T18:49:40.420Z,1.82
2019-02-16T18:50:40.593Z,1.79
2019-02-16T18:51:40.773Z,1.75
2019-02-16T18:52:40.927Z,1.81
2019-02-16T18:53:41.027Z,1.88
2019-02-16T18:54:41.247Z,1.72
2019-02-16T18:55:41.489Z,1.85
2019-02-16T18:56:41.725Z,1.79
2019-02-16T18:57:41.848Z,1.68
2019-02-16T18:58:42.875Z,1.68
2019-02-16T18:59:42.207Z,1.63
2019-02-16T20:00:37.499Z,-0.27
2019-02-16T20:01:42.346Z,-0.49
2019-02-16T20:02:43.388Z,-0.45
2019-02-16T20:03:41.523Z,-0.52
2019-02-16T20:04:38.846Z,-0.50
2019-02-16T20:07:07.086Z,-0.45
2019-02-16T20:08:06.169Z,-0.37
2019-02-16T20:09:06.316Z,-0.47
2019-02-16T20:10:06.472Z,-0.35
2019-02-16T20:11:07.370Z,-0.32
2019-02-16T20:12:13.668Z,-0.26
2019-02-16T20:13:06.940Z,-0.37
2019-02-16T20:14:07.041Z,-0.37
2019-02-16T20:15:07.209Z,-0.37
2019-02-16T20:16:07.319Z,-0.31
2019-02-16T20:17:07.421Z,-0.41
2019-02-16T20:18:07.556Z,-0.32
2019-02-16T20:19:07.680Z,-0.39
2019-02-16T20:20:07.829Z,-0.26
2019-02-16T20:21:07.933Z,-0.26
2019-02-16T20:22:08.144Z,-0.16
2019-02-16T20:23:08.376Z,-0.14
2019-02-16T20:24:08.610Z,-0.03
2019-02-16T20:25:08.849Z,-0.12
2019-02-16T20:26:09.089Z,-0.05
2019-02-16T20:27:09.332Z,-0.05
2019-02-16T20:28:09.587Z,-0.14
2019-02-16T20:29:09.838Z,-0.09
2019-02-16T20:30:09.938Z,-0.13
2019-02-16T20:31:10.157Z,-0.16
2019-02-16T20:32:10.377Z,-0.20
2019-02-16T20:33:10.611Z,-0.24
2019-02-16T20:34:10.834Z,-0.35
2019-02-16T20:35:11.052Z,-0.45
2019-02-16T20:36:11.276Z,-0.45
2019-02-16T20:37:11.520Z,-0.49
2019-02-16T20:38:11.617Z,-0.58
2019-02-16T20:39:11.905Z,-0.67
2019-02-16T20:40:12.042Z,-0.68
2019-02-16T20:41:12.130Z,-0.70
2019-02-16T20:42:12.370Z,-0.71
2019-02-16T20:43:12.579Z,-0.81
2019-02-16T20:44:12.845Z,-0.85
2019-02-16T20:45:13.001Z,-0.83
2019-02-16T20:46:13.117Z,-0.85
2019-02-16T20:47:13.290Z,-0.86
2019-02-16T20:48:13.445Z,-0.85
2019-02-16T20:49:13.549Z,-0.85
2019-02-16T20:50:13.687Z,-0.77
2019-02-16T20:51:13.828Z,-0.83
2019-02-16T20:52:15.127Z,-0.76
2019-02-16T20:53:15.284Z,-0.74
2019-02-16T20:54:15.512Z,-0.83
2019-02-16T20:55:15.710Z,-0.70
2019-02-16T20:56:15.916Z,-0.90
2019-02-16T20:57:16.095Z,-0.95
2019-02-16T20:58:16.279Z,-0.97
2019-02-16T20:59:16.501Z,-0.97
2019-02-16T21:15:29.790Z,-1.13
2019-02-16T21:16:29.919Z,-1.14
2019-02-16T21:17:30.082Z,-1.08
2019-02-16T21:18:30.331Z,-1.25
2019-02-16T21:19:30.876Z,-1.20
2019-02-16T21:20:31.179Z,-1.26
2019-02-16T21:21:30.911Z,-1.38
2019-02-16T21:22:32.366Z,-1.44
2019-02-16T21:23:31.890Z,-1.49
2019-02-16T21:24:31.310Z,-1.65
2019-02-16T21:25:32.658Z,-1.64
2019-02-16T21:26:37.224Z,-1.72
2019-02-16T21:27:35.017Z,-1.80
2019-02-16T21:28:33.319Z,-1.82
2019-02-16T21:29:33.433Z,-1.77
2019-02-16T21:30:33.684Z,-1.65
2019-02-16T21:31:33.819Z,-1.77
2019-02-16T21:32:34.070Z,-1.83
2019-02-16T21:33:36.328Z,-1.80
2019-02-16T21:34:34.330Z,-1.77
2019-02-16T21:35:34.496Z,-1.70
2019-02-16T21:36:34.620Z,-1.64
2019-02-16T21:37:34.874Z,-1.54
2019-02-16T21:38:35.036Z,-1.56
2019-02-16T21:39:35.214Z,-1.46
2019-02-16T21:40:35.376Z,-1.54
2019-02-16T21:41:35.498Z,-1.51
2019-02-16T21:42:35.678Z,-1.41
2019-02-16T21:43:35.798Z,-1.38
2019-02-16T21:44:36.119Z,-1.43
2019-02-16T21:45:36.221Z,-1.44
2019-02-16T21:46:36.384Z,-1.44
2019-02-16T21:47:36.568Z,-1.49
2019-02-16T21:48:36.749Z,-1.44
2019-02-16T21:49:39.298Z,-1.51
2019-02-16T21:50:37.018Z,-1.51
2019-02-16T21:51:37.373Z,-1.61
2019-02-16T21:52:37.412Z,-1.62
2019-02-16T21:53:37.559Z,-1.70
2019-02-16T21:54:37.693Z,-1.74
2019-02-16T21:55:37.924Z,-1.67
2019-02-16T21:56:38.029Z,-1.72
2019-02-16T21:57:38.283Z,-1.78
2019-02-16T21:58:38.413Z,-1.90
2019-02-16T21:59:38.641Z,-1.95
